Time;durP1;ratioP1;P1;durP2;ratioP2;P2;SDS_P1;SDS_P2;PMS_P1;PMS_P2;Temp;Humidity;BMP_temperature;BMP_pressure;BME280_temperature;BME280_humidity;BME280_pressure;Samples;Min_cycle;Max_cycle;Signal;HPM_P1;HPM_P2
2023/06/08 00:02:25;;;;;;;20.45;15.45;;;;;;;17.83;89.15;100931.72;5033187;28;20137;-80
2023/06/08 00:04:52;;;;;;;16.73;14.85;;;;;;;17.82;89.20;100930.09;5028523;28;20049;-79
2023/06/08 00:07:19;;;;;;;19.27;14.52;;;;;;;17.78;89.03;100929.66;5023867;28;20080;-80
2023/06/08 00:09:46;;;;;;;17.13;14.73;;;;;;;17.73;89.23;100926.78;5033053;28;20069;-79
2023/06/08 00:12:12;;;;;;;16.40;14.65;;;;;;;17.74;89.11;100927.59;5031027;28;20046;-77
2023/06/08 00:14:40;;;;;;;21.58;14.40;;;;;;;17.72;89.19;100913.75;5028437;28;20053;-79
2023/06/08 00:17:10;;;;;;;17.67;13.82;;;;;;;17.75;89.60;100921.28;5028431;28;20073;-79
2023/06/08 00:19:37;;;;;;;19.45;14.77;;;;;;;17.69;89.25;100908.84;5033552;28;20117;-79
2023/06/08 00:22:05;;;;;;;18.80;15.05;;;;;;;17.64;89.58;100916.50;5031810;28;20053;-79
2023/06/08 00:24:31;;;;;;;16.85;15.18;;;;;;;17.64;89.74;100921.81;5033924;28;20065;-78
2023/06/08 00:26:58;;;;;;;18.10;14.68;;;;;;;17.61;89.76;100916.91;5033026;28;20065;-78
2023/06/08 00:29:25;;;;;;;17.77;14.45;;;;;;;17.57;90.23;100927.88;5029830;28;20049;-79
2023/06/08 00:31:52;;;;;;;17.70;14.63;;;;;;;17.56;90.28;100926.25;5034357;28;20049;-78
2023/06/08 00:34:20;;;;;;;16.20;14.50;;;;;;;17.45;90.39;100918.88;5032774;28;20237;-79
2023/06/08 00:36:47;;;;;;;20.25;14.98;;;;;;;17.43;90.61;100926.19;5029474;28;20060;-78
2023/06/08 00:39:14;;;;;;;22.33;16.10;;;;;;;17.39;90.82;100924.94;5032061;28;20050;-79
2023/06/08 00:41:41;;;;;;;20.48;14.45;;;;;;;17.36;90.85;100920.03;5035244;28;20499;-78
2023/06/08 00:44:08;;;;;;;19.55;15.15;;;;;;;17.32;90.78;100918.78;5029006;28;20076;-78
2023/06/08 00:46:36;;;;;;;19.95;15.68;;;;;;;17.29;91.07;100907.75;5030702;28;20101;-80
2023/06/08 00:49:03;;;;;;;22.55;15.38;;;;;;;17.27;91.15;100921.16;5015072;28;20125;-77
2023/06/08 00:51:40;;;;;;;17.20;15.43;;;;;;;17.23;91.17;100914.63;5029801;28;20105;-78
2023/06/08 00:54:09;;;;;;;18.83;15.50;;;;;;;17.21;91.36;100917.47;5023342;28;20054;-78
2023/06/08 00:56:38;;;;;;;19.13;15.18;;;;;;;17.20;91.39;100918.47;5026383;28;20100;-77
2023/06/08 00:59:05;;;;;;;22.20;15.68;;;;;;;17.17;91.45;100918.84;5026090;28;20115;-77
2023/06/08 01:01:35;;;;;;;19.63;15.05;;;;;;;17.12;91.74;100918.63;5030477;28;20159;-79
2023/06/08 01:04:06;;;;;;;17.75;15.30;;;;;;;17.07;91.92;100917.53;5023826;28;20060;-80
2023/06/08 01:06:36;;;;;;;19.13;15.43;;;;;;;17.04;92.12;100920.56;5033265;28;20056;-80
2023/06/08 01:09:14;;;;;;;19.52;15.77;;;;;;;16.96;92.40;100916.25;5020978;28;20054;-80
2023/06/08 01:11:54;;;;;;;20.42;15.88;;;;;;;16.91;92.58;100924.75;5023475;28;20053;-77
2023/06/08 01:14:36;;;;;;;20.08;15.75;;;;;;;16.92;92.75;100913.19;5025138;28;20551;-78
2023/06/08 01:17:03;;;;;;;;;;;;;;;16.98;92.76;100916.88;5021819;28;20550;-78
2023/06/08 01:19:48;;;;;;;17.98;14.90;;;;;;;17.02;92.74;100919.94;5026425;28;19975;-78
2023/06/08 01:22:22;;;;;;;17.65;15.15;;;;;;;17.02;92.76;100912.00;5021402;28;20081;-80
2023/06/08 01:24:59;;;;;;;19.17;15.13;;;;;;;17.02;92.77;100910.19;5023763;28;20484;-78
2023/06/08 01:27:29;;;;;;;16.90;15.13;;;;;;;17.00;93.11;100920.16;5024862;28;20053;-78
2023/06/08 01:29:55;;;;;;;22.20;16.45;;;;;;;16.98;92.92;100916.06;5020644;28;20124;-78
2023/06/08 01:32:22;;;;;;;21.13;16.27;;;;;;;16.91;93.08;100911.53;5024002;28;20053;-78
2023/06/08 01:34:49;;;;;;;20.27;16.23;;;;;;;16.94;93.40;100920.09;5025467;28;20056;-78
2023/06/08 01:37:23;;;;;;;18.92;15.43;;;;;;;16.84;93.68;100915.94;5012912;28;20054;-78
2023/06/08 01:39:57;;;;;;;21.10;16.25;;;;;;;16.84;93.71;100921.25;5025051;28;20072;-77
2023/06/08 01:42:27;;;;;;;19.15;16.65;;;;;;;16.83;94.01;100924.06;5022580;28;20129;-79
2023/06/08 01:44:58;;;;;;;18.67;15.93;;;;;;;16.77;94.38;100920.34;5021181;28;20168;-78
2023/06/08 01:47:44;;;;;;;20.40;16.90;;;;;;;16.71;94.64;100923.75;5024783;28;20052;-78
2023/06/08 01:50:12;;;;;;;21.92;17.33;;;;;;;16.65;94.99;100923.69;5020546;28;20304;-78
2023/06/08 01:52:39;;;;;;;22.67;16.42;;;;;;;16.59;95.48;100917.28;5025842;28;20129;-77
2023/06/08 01:55:14;;;;;;;23.45;17.58;;;;;;;16.57;95.64;100921.94;5025357;28;20093;-78
2023/06/08 01:57:41;;;;;;;22.85;18.17;;;;;;;16.50;95.83;100916.63;5020958;28;20048;-79
2023/06/08 02:00:09;;;;;;;23.33;17.40;;;;;;;16.49;96.00;100912.34;5021357;28;20073;-80
2023/06/08 02:02:36;;;;;;;22.13;17.45;;;;;;;16.41;96.32;100916.94;5022794;28;20058;-79
2023/06/08 02:05:03;;;;;;;19.60;17.70;;;;;;;16.39;96.59;100918.94;5024093;28;20061;-79
2023/06/08 02:07:29;;;;;;;20.05;16.88;;;;;;;16.32;97.03;100910.13;5025005;28;20089;-79
2023/06/08 02:09:56;;;;;;;20.95;17.15;;;;;;;16.30;97.25;100917.41;5022337;28;20109;-80
2023/06/08 02:12:24;;;;;;;19.75;17.27;;;;;;;16.26;97.54;100917.78;5020084;28;20142;-79
2023/06/08 02:14:51;;;;;;;23.63;17.67;;;;;;;16.24;97.67;100917.13;5022576;28;20228;-78
2023/06/08 02:17:25;;;;;;;23.60;18.70;;;;;;;16.20;97.73;100915.88;5022274;28;20516;-78
2023/06/08 02:19:52;;;;;;;24.45;19.00;;;;;;;16.18;97.96;100912.59;5023031;28;20049;-79
2023/06/08 02:22:19;;;;;;;25.08;18.52;;;;;;;16.10;98.20;100912.69;5022758;28;20076;-77
2023/06/08 02:24:45;;;;;;;25.63;17.90;;;;;;;16.07;98.51;100907.78;5024373;28;20087;-79
2023/06/08 02:27:13;;;;;;;28.00;17.77;;;;;;;16.01;99.06;100913.84;5022580;28;20496;-79
2023/06/08 02:29:42;;;;;;;21.63;17.77;;;;;;;16.02;99.11;100917.28;5026977;28;20045;-79
2023/06/08 02:32:09;;;;;;;22.77;18.58;;;;;;;16.01;99.08;100915.66;5023439;28;20152;-79
2023/06/08 02:34:37;;;;;;;21.05;18.77;;;;;;;16.00;99.23;100916.66;5024820;28;20064;-78
2023/06/08 02:37:04;;;;;;;21.30;18.73;;;;;;;15.96;99.20;100926.75;5017687;28;20128;-77
2023/06/08 02:39:31;;;;;;;21.17;18.10;;;;;;;15.92;99.15;100925.50;5022054;28;20554;-79
2023/06/08 02:41:58;;;;;;;23.20;18.75;;;;;;;15.96;99.24;100926.75;5018843;28;20045;-79
2023/06/08 02:44:24;;;;;;;20.05;17.95;;;;;;;15.93;99.29;100930.59;5022676;28;20089;-81
2023/06/08 02:46:52;;;;;;;29.48;19.23;;;;;;;15.91;99.36;100923.84;5020388;28;20053;-78
2023/06/08 02:49:19;;;;;;;20.60;18.40;;;;;;;15.87;99.43;100928.69;5022785;28;20061;-78
2023/06/08 02:51:46;;;;;;;25.23;20.02;;;;;;;15.83;99.79;100926.59;5022319;28;20433;-78
2023/06/08 02:54:12;;;;;;;25.15;19.40;;;;;;;15.83;99.81;100926.59;5018278;28;20074;-81
2023/06/08 02:56:39;;;;;;;24.50;19.80;;;;;;;15.77;100.00;100927.31;5020835;28;20128;-77
2023/06/08 02:59:05;;;;;;;27.45;20.23;;;;;;;15.76;100.00;100926.50;5020711;28;20132;-77
2023/06/08 03:01:33;;;;;;;26.77;19.63;;;;;;;15.75;100.00;100929.31;5017228;28;20046;-78
2023/06/08 03:04:01;;;;;;;28.38;20.38;;;;;;;15.71;100.00;100922.75;5017587;28;20046;-77
2023/06/08 03:06:33;;;;;;;25.98;19.63;;;;;;;15.73;100.00;100923.41;5017293;28;20085;-79
2023/06/08 03:08:59;;;;;;;26.67;19.95;;;;;;;15.73;100.00;100936.59;5017517;28;20071;-79
2023/06/08 03:11:26;;;;;;;25.75;19.50;;;;;;;15.70;100.00;100932.50;5021302;28;20050;-80
2023/06/08 03:13:53;;;;;;;23.92;20.55;;;;;;;15.63;100.00;100928.13;5024707;28;20079;-78
2023/06/08 03:16:22;;;;;;;26.77;20.90;;;;;;;15.62;100.00;100929.13;5026773;28;20580;-78
2023/06/08 03:18:49;;;;;;;27.90;20.90;;;;;;;15.56;100.00;100920.97;5036016;28;20053;-78
2023/06/08 03:21:18;;;;;;;25.77;21.02;;;;;;;15.59;100.00;100925.06;5029938;28;20080;-79
2023/06/08 03:23:48;;;;;;;28.42;21.10;;;;;;;15.58;100.00;100921.59;5030764;28;20415;-78
2023/06/08 03:26:15;;;;;;;25.33;19.73;;;;;;;15.53;100.00;100916.00;5038424;28;20041;-77
2023/06/08 03:28:42;;;;;;;26.55;20.05;;;;;;;15.60;100.00;100927.47;5032248;28;20049;-77
2023/06/08 03:31:08;;;;;;;26.33;20.52;;;;;;;15.54;100.00;100917.66;5025217;28;20140;-79
2023/06/08 03:33:35;;;;;;;29.98;20.65;;;;;;;15.57;100.00;100914.69;5025469;28;20077;-79
2023/06/08 03:36:02;;;;;;;28.25;20.25;;;;;;;15.60;100.00;100922.22;5018889;28;20061;-79
2023/06/08 03:38:30;;;;;;;25.73;20.27;;;;;;;15.59;100.00;100920.59;5024497;28;20133;-80
2023/06/08 03:40:57;;;;;;;24.17;19.83;;;;;;;15.60;100.00;100916.13;5023666;28;20061;-80
2023/06/08 03:43:23;;;;;;;26.75;19.95;;;;;;;15.63;100.00;100923.66;5023776;28;20132;-80
2023/06/08 03:45:50;;;;;;;27.13;19.35;;;;;;;15.61;100.00;100915.13;5025740;28;20050;-80
2023/06/08 03:48:16;;;;;;;24.98;20.55;;;;;;;15.66;100.00;100907.47;5023971;28;20085;-80
2023/06/08 03:50:43;;;;;;;23.73;19.48;;;;;;;15.69;100.00;100922.13;5026466;28;20484;-79
2023/06/08 03:53:10;;;;;;;28.45;19.25;;;;;;;15.69;100.00;100916.84;5028515;28;20072;-79
2023/06/08 03:55:38;;;;;;;25.52;18.70;;;;;;;15.68;100.00;100920.47;5028175;28;20176;-79
2023/06/08 03:58:05;;;;;;;31.20;20.48;;;;;;;15.69;100.00;100915.03;5023533;28;20129;-79
2023/06/08 04:00:32;;;;;;;23.95;19.38;;;;;;;15.75;100.00;100924.03;5022974;28;20141;-78
2023/06/08 04:02:58;;;;;;;27.50;20.38;;;;;;;15.95;100.00;100919.84;5022661;28;20077;-79
2023/06/08 04:05:25;;;;;;;28.70;19.02;;;;;;;16.40;99.96;100912.66;5023104;28;20132;-78
2023/06/08 04:07:52;;;;;;;24.13;18.25;;;;;;;16.80;97.96;100909.41;5017249;28;20070;-78
2023/06/08 04:10:18;;;;;;;24.17;17.15;;;;;;;17.25;95.81;100904.69;5021587;28;20113;-78
2023/06/08 04:12:46;;;;;;;25.88;17.17;;;;;;;17.59;93.36;100878.22;5022977;28;20049;-80
2023/06/08 04:15:13;;;;;;;25.70;17.30;;;;;;;17.68;91.38;100883.38;5016689;28;20076;-79
2023/06/08 04:17:42;;;;;;;25.27;17.83;;;;;;;17.84;90.20;100881.22;5021869;28;20117;-80
2023/06/08 04:20:12;;;;;;;24.85;16.92;;;;;;;17.90;89.46;100875.16;5021103;28;20072;-78
2023/06/08 04:22:39;;;;;;;24.77;16.20;;;;;;;18.21;88.83;100887.88;5022027;28;20600;-79
2023/06/08 04:25:06;;;;;;;21.50;15.80;;;;;;;18.78;87.05;100878.63;5018902;28;20088;-80
2023/06/08 04:27:38;;;;;;;21.80;14.35;;;;;;;19.21;84.68;100873.69;5019988;28;20128;-80
2023/06/08 04:30:07;;;;;;;22.95;15.02;;;;;;;19.39;83.25;100880.97;5013835;28;20054;-80
2023/06/08 04:32:34;;;;;;;19.02;15.20;;;;;;;19.13;82.93;100870.44;5020334;28;20054;-80
2023/06/08 04:35:03;;;;;;;22.00;15.50;;;;;;;18.90;83.31;100879.63;5013684;28;20108;-80
2023/06/08 04:37:30;;;;;;;20.92;15.18;;;;;;;18.72;84.31;100887.38;5019678;28;20443;-78
2023/06/08 04:39:57;;;;;;;20.45;15.20;;;;;;;18.69;84.58;100890.44;5017861;28;20046;-79
2023/06/08 04:42:27;;;;;;;23.52;15.63;;;;;;;18.62;84.91;100889.59;5020367;28;20050;-78
2023/06/08 04:44:53;;;;;;;19.33;15.63;;;;;;;18.41;85.74;100887.13;5019758;28;20481;-81
2023/06/08 04:47:21;;;;;;;24.70;17.65;;;;;;;18.66;85.46;100892.66;5020235;28;20092;-79
2023/06/08 04:49:48;;;;;;;24.80;16.35;;;;;;;18.68;84.86;100891.44;5019396;28;20058;-80
2023/06/08 04:52:16;;;;;;;20.70;16.23;;;;;;;18.49;85.64;100893.00;5018634;28;20133;-80
2023/06/08 04:54:42;;;;;;;23.63;16.90;;;;;;;18.18;86.74;100892.75;5019387;28;20466;-80
2023/06/08 04:57:10;;;;;;;20.38;16.73;;;;;;;18.26;87.02;100894.41;5014662;28;20129;-79
2023/06/08 04:59:37;;;;;;;23.20;16.48;;;;;;;18.55;86.31;100886.91;5018713;28;20049;-80
2023/06/08 05:02:04;;;;;;;23.45;17.00;;;;;;;18.68;85.56;100894.09;5019187;28;20216;-80
2023/06/08 05:04:33;;;;;;;22.92;16.60;;;;;;;18.74;85.29;100888.00;5019816;28;20081;-80
2023/06/08 05:07:01;;;;;;;25.92;16.17;;;;;;;18.72;85.16;100895.34;5021038;28;20046;-77
2023/06/08 05:09:28;;;;;;;24.65;16.23;;;;;;;18.85;85.27;100890.03;5019877;28;20218;-80
2023/06/08 05:11:56;;;;;;;25.27;16.40;;;;;;;18.70;85.22;100885.94;5019313;28;20084;-79
2023/06/08 05:14:23;;;;;;;26.27;16.35;;;;;;;18.97;84.90;100892.06;5020113;28;20132;-79
2023/06/08 05:16:49;;;;;;;25.77;16.90;;;;;;;18.96;84.96;100882.47;5022915;28;20091;-80
2023/06/08 05:19:16;;;;;;;18.60;16.05;;;;;;;19.64;83.17;100880.34;5020862;28;20081;-80
2023/06/08 05:21:44;;;;;;;20.60;15.45;;;;;;;19.81;81.70;100881.53;5019352;28;20077;-80
2023/06/08 05:24:10;;;;;;;22.52;15.43;;;;;;;20.09;80.53;100874.03;5019553;28;20046;-80
2023/06/08 05:26:39;;;;;;;20.85;15.55;;;;;;;21.09;78.17;100877.63;5017755;28;20752;-80
2023/06/08 05:29:05;;;;;;;19.20;14.05;;;;;;;22.09;75.00;100870.19;5018994;28;20053;-78
2023/06/08 05:31:32;;;;;;;24.48;14.90;;;;;;;22.80;71.95;100869.31;5018512;28;20144;-81
2023/06/08 05:33:58;;;;;;;20.23;13.88;;;;;;;23.10;70.13;100863.88;5019397;28;20548;-81
2023/06/08 05:36:25;;;;;;;18.92;13.55;;;;;;;23.30;69.31;100850.16;5018019;28;20089;-79
2023/06/08 05:38:53;;;;;;;19.45;13.88;;;;;;;23.74;68.18;100856.69;5017003;28;20080;-79
2023/06/08 05:41:20;;;;;;;19.15;12.90;;;;;;;23.89;67.37;100856.19;5011565;28;20689;-80
2023/06/08 05:43:46;;;;;;;21.83;13.38;;;;;;;23.83;66.93;100860.63;5016794;28;20134;-81
2023/06/08 05:46:14;;;;;;;17.10;12.73;;;;;;;24.42;66.25;100860.38;5011080;28;20506;-81
2023/06/08 05:48:41;;;;;;;23.25;13.13;;;;;;;24.09;66.29;100861.94;5019884;28;20132;-79
2023/06/08 05:51:08;;;;;;;19.33;13.15;;;;;;;23.63;67.35;100859.44;5018894;28;20555;-80
2023/06/08 05:53:36;;;;;;;18.52;14.23;;;;;;;23.41;67.63;100865.34;5020224;28;20042;-80
2023/06/08 05:56:04;;;;;;;17.60;12.88;;;;;;;24.20;66.59;100856.75;5022200;28;20117;-80
2023/06/08 05:58:31;;;;;;;15.48;12.90;;;;;;;24.92;64.58;100859.56;5022683;28;20080;-79
2023/06/08 06:00:59;;;;;;;15.80;12.43;;;;;;;25.14;63.58;100849.72;5022468;28;20057;-80
2023/06/08 06:03:26;;;;;;;19.17;13.18;;;;;;;24.65;64.15;100848.69;5023574;28;20042;-77
2023/06/08 06:05:53;;;;;;;23.50;13.65;;;;;;;24.57;65.27;100851.81;5026221;28;20060;-78
2023/06/08 06:08:19;;;;;;;17.42;13.15;;;;;;;24.77;64.24;100858.28;5019414;28;20104;-79
2023/06/08 06:10:46;;;;;;;19.45;12.20;;;;;;;25.69;62.58;100848.84;5025511;28;20058;-79
2023/06/08 06:13:14;;;;;;;18.98;12.13;;;;;;;26.08;61.92;100847.66;5024511;28;20050;-79
2023/06/08 06:15:41;;;;;;;18.20;12.93;;;;;;;26.37;60.52;100842.06;5029369;28;20084;-80
2023/06/08 06:18:07;;;;;;;17.63;12.35;;;;;;;26.56;60.07;100851.31;5026387;28;20104;-78
2023/06/08 06:20:34;;;;;;;15.52;12.65;;;;;;;26.86;59.44;100841.91;5021422;28;20081;-79
2023/06/08 06:23:00;;;;;;;14.82;12.68;;;;;;;27.27;58.91;100851.00;5029038;28;20046;-77
2023/06/08 06:25:27;;;;;;;15.50;11.77;;;;;;;27.06;58.56;100850.09;5025293;28;20487;-77
2023/06/08 06:27:54;;;;;;;13.38;11.57;;;;;;;26.74;59.65;100850.94;5024965;28;20050;-79
2023/06/08 06:30:22;;;;;;;18.30;12.02;;;;;;;26.30;59.91;100844.13;5018018;28;20049;-79
2023/06/08 06:32:49;;;;;;;17.38;13.43;;;;;;;25.89;60.24;100846.41;5023859;28;20129;-78
2023/06/08 06:35:15;;;;;;;18.67;12.73;;;;;;;26.70;60.41;100852.50;5026335;28;20060;-78
2023/06/08 06:37:42;;;;;;;15.25;11.55;;;;;;;26.84;59.33;100852.09;5020017;28;20109;-82
2023/06/08 06:40:09;;;;;;;16.33;12.07;;;;;;;27.21;58.44;100844.81;5023137;28;20088;-80
2023/06/08 06:42:37;;;;;;;15.02;11.25;;;;;;;27.66;57.26;100840.72;5022954;28;20054;-81
2023/06/08 06:45:04;;;;;;;15.90;11.73;;;;;;;27.67;55.94;100826.19;5009764;28;20065;-79
2023/06/08 06:47:32;;;;;;;15.85;11.93;;;;;;;27.19;57.61;100846.94;5014069;28;20058;-81
2023/06/08 06:49:59;;;;;;;15.90;11.77;;;;;;;27.29;58.06;100855.06;5015479;28;20076;-77
2023/06/08 06:52:25;;;;;;;12.65;10.75;;;;;;;27.50;55.39;100839.00;5010984;28;20077;-79
2023/06/08 06:54:52;;;;;;;17.52;11.45;;;;;;;27.75;55.81;100849.88;5013029;28;20051;-78
2023/06/08 06:57:18;;;;;;;15.38;11.70;;;;;;;27.68;55.93;100849.31;5012220;28;20050;-80
2023/06/08 06:59:46;;;;;;;12.80;10.98;;;;;;;26.98;55.81;100850.56;5014178;28;20046;-80
2023/06/08 07:02:12;;;;;;;13.23;10.52;;;;;;;28.47;54.77;100848.13;5011530;28;20109;-79
2023/06/08 07:04:40;;;;;;;14.68;11.40;;;;;;;27.96;54.22;100842.66;5012791;28;20141;-81
2023/06/08 07:07:07;;;;;;;15.88;11.77;;;;;;;28.40;53.63;100829.53;5010929;28;20081;-81
2023/06/08 07:09:34;;;;;;;12.75;10.98;;;;;;;28.73;53.95;100837.06;5022254;28;20103;-78
2023/06/08 07:12:00;;;;;;;12.98;10.57;;;;;;;28.70;53.27;100834.94;5018335;28;20050;-78
2023/06/08 07:14:27;;;;;;;15.20;11.50;;;;;;;28.78;54.07;100835.47;5014594;28;20133;-79
2023/06/08 07:16:53;;;;;;;14.75;11.00;;;;;;;29.23;53.14;100835.38;5020708;28;20133;-80
2023/06/08 07:19:20;;;;;;;12.45;10.73;;;;;;;28.01;53.55;100821.16;5013989;28;20116;-80
2023/06/08 07:21:48;;;;;;;13.43;11.00;;;;;;;28.03;54.47;100824.38;5015276;28;20042;-79
2023/06/08 07:24:15;;;;;;;14.48;10.98;;;;;;;27.75;54.36;100823.00;5015155;28;20549;-79
2023/06/08 07:26:43;;;;;;;14.52;11.50;;;;;;;27.62;54.94;100831.56;5035576;28;20045;-79
2023/06/08 07:29:10;;;;;;;14.48;11.02;;;;;;;28.24;54.05;100812.63;5022201;28;20050;-78
2023/06/08 07:31:38;;;;;;;12.73;10.30;;;;;;;28.90;52.83;100828.72;5021796;28;20108;-79
2023/06/08 07:34:06;;;;;;;14.52;10.80;;;;;;;28.44;52.66;100822.56;5012221;28;20047;-76
2023/06/08 07:36:35;;;;;;;14.48;12.05;;;;;;;28.65;53.66;100821.47;5010461;28;20097;-77
2023/06/08 07:39:03;;;;;;;14.10;10.98;;;;;;;29.15;52.67;100824.34;5002804;28;20129;-76
2023/06/08 07:41:30;;;;;;;13.63;10.35;;;;;;;29.52;51.38;100823.94;5012091;28;20092;-76
2023/06/08 07:43:57;;;;;;;13.93;10.63;;;;;;;28.44;52.14;100819.06;5018126;28;20491;-77
2023/06/08 07:46:24;;;;;;;12.95;9.98;;;;;;;29.22;52.16;100825.66;5011328;28;20145;-78
2023/06/08 07:48:50;;;;;;;14.77;10.23;;;;;;;29.84;51.13;100820.78;5009628;28;20085;-76
2023/06/08 07:51:17;;;;;;;12.73;10.52;;;;;;;30.02;50.46;100818.28;5005270;28;20046;-77
2023/06/08 07:53:43;;;;;;;13.48;10.30;;;;;;;30.00;50.43;100823.13;5011544;28;20130;-76
2023/06/08 07:56:12;;;;;;;13.98;9.27;;;;;;;28.98;51.24;100813.88;5010451;28;20141;-76
2023/06/08 07:58:38;;;;;;;12.02;9.23;;;;;;;28.99;51.39;100810.91;5009410;28;20976;-77
2023/06/08 08:01:05;;;;;;;10.95;9.15;;;;;;;28.91;50.49;100818.75;5013374;28;20054;-78
2023/06/08 08:03:37;;;;;;;10.52;9.00;;;;;;;27.58;53.00;100823.19;5015780;28;20050;-79
2023/06/08 08:06:04;;;;;;;12.25;9.23;;;;;;;28.27;52.40;100806.69;5016773;28;20045;-78
2023/06/08 08:08:30;;;;;;;12.05;10.30;;;;;;;27.83;52.80;100810.94;5021370;28;20160;-78
2023/06/08 08:10:57;;;;;;;10.27;9.27;;;;;;;28.35;51.67;100816.94;5026186;28;20092;-78
2023/06/08 08:13:25;;;;;;;10.82;9.80;;;;;;;27.80;52.41;100808.75;5027469;28;20065;-78
2023/06/08 08:15:51;;;;;;;15.35;10.60;;;;;;;26.82;54.89;100820.13;5025907;28;20160;-80
2023/06/08 08:18:18;;;;;;;10.60;9.38;;;;;;;27.90;54.33;100814.13;5025033;28;20086;-80
2023/06/08 08:20:45;;;;;;;10.52;9.40;;;;;;;29.40;51.88;100811.56;5027510;28;20046;-79
2023/06/08 08:23:11;;;;;;;11.80;10.60;;;;;;;29.08;50.56;100802.28;5029345;28;20431;-80
2023/06/08 08:25:38;;;;;;;11.80;9.82;;;;;;;27.36;54.74;100819.91;5026573;28;20072;-79
2023/06/08 08:28:04;;;;;;;13.18;11.25;;;;;;;27.63;53.19;100800.91;5027117;28;20077;-79
2023/06/08 08:30:33;;;;;;;12.43;10.38;;;;;;;28.47;52.49;100796.97;5027020;28;20085;-79
2023/06/08 08:33:00;;;;;;;14.48;10.13;;;;;;;28.79;51.85;100794.78;5026747;28;20078;-78
2023/06/08 08:35:29;;;;;;;12.35;10.90;;;;;;;28.68;52.01;100798.56;5027271;28;20054;-79
2023/06/08 08:37:56;;;;;;;12.35;10.73;;;;;;;27.43;54.69;100797.06;5028189;28;20058;-79
2023/06/08 08:40:23;;;;;;;11.90;10.50;;;;;;;28.12;53.53;100797.78;5027578;28;20115;-80
2023/06/08 08:42:57;;;;;;;11.23;10.02;;;;;;;28.33;52.24;100788.66;5027330;28;20085;-80
2023/06/08 08:45:31;;;;;;;12.43;10.27;;;;;;;27.97;52.75;100788.59;5027213;28;20078;-80
2023/06/08 08:48:01;;;;;;;12.35;9.48;;;;;;;27.70;53.73;100783.47;5025683;28;20077;-80
2023/06/08 08:50:29;;;;;;;10.65;9.65;;;;;;;27.90;53.03;100781.88;5024397;28;20046;-80
2023/06/08 08:52:59;;;;;;;10.70;9.60;;;;;;;28.94;52.24;100780.47;5027231;28;20180;-79
2023/06/08 08:55:28;;;;;;;11.32;9.00;;;;;;;29.31;51.60;100771.97;5027292;28;20049;-80
2023/06/08 08:57:57;;;;;;;9.80;8.90;;;;;;;29.49;51.64;100776.78;5025631;28;20447;-78
2023/06/08 09:00:24;;;;;;;12.73;10.13;;;;;;;28.19;52.34;100766.84;5026022;28;20054;-79
2023/06/08 09:02:52;;;;;;;10.43;9.32;;;;;;;28.38;52.45;100769.78;5026177;28;20112;-80
2023/06/08 09:05:20;;;;;;;11.75;9.70;;;;;;;28.35;51.82;100763.09;5026203;28;20046;-80
2023/06/08 09:07:47;;;;;;;16.63;10.25;;;;;;;28.22;52.96;100770.91;5026846;28;20058;-79
2023/06/08 09:10:19;;;;;;;12.45;11.15;;;;;;;27.21;53.51;100769.59;5017968;28;20114;-79
2023/06/08 09:12:47;;;;;;;10.90;9.77;;;;;;;28.54;53.06;100776.78;5025111;28;20054;-80
2023/06/08 09:15:16;;;;;;;11.07;9.98;;;;;;;29.11;51.26;100769.38;5024973;28;20523;-80
2023/06/08 09:17:44;;;;;;;13.02;10.23;;;;;;;29.11;50.83;100767.50;5026378;28;20049;-79
2023/06/08 09:20:11;;;;;;;11.63;9.88;;;;;;;28.54;52.18;100773.28;5026736;28;20056;-78
2023/06/08 09:22:40;;;;;;;12.43;10.25;;;;;;;27.62;52.88;100764.34;5025663;28;20096;-79
2023/06/08 09:25:07;;;;;;;11.27;10.10;;;;;;;27.29;55.28;100766.41;5025178;28;20061;-79
2023/06/08 09:27:35;;;;;;;11.82;10.52;;;;;;;27.32;54.49;100765.88;5026475;28;20057;-81
2023/06/08 09:30:02;;;;;;;13.30;10.65;;;;;;;26.50;56.80;100774.53;5024823;28;20061;-81
2023/06/08 09:32:32;;;;;;;11.93;10.52;;;;;;;27.15;56.04;100770.63;5027000;28;20073;-80
2023/06/08 09:35:01;;;;;;;12.35;10.38;;;;;;;27.27;55.64;100752.41;5028231;28;20075;-80
2023/06/08 09:37:29;;;;;;;12.50;11.18;;;;;;;27.66;56.11;100754.69;5027638;28;20404;-80
2023/06/08 09:39:58;;;;;;;12.15;9.60;;;;;;;28.22;54.08;100752.06;5027102;28;20066;-80
2023/06/08 09:42:40;;;;;;;15.40;9.80;;;;;;;27.93;54.80;100749.88;5027568;28;20050;-80
2023/06/08 09:45:10;;;;;;;10.55;9.55;;;;;;;27.76;54.84;100743.97;5020744;28;20436;-79
2023/06/08 09:47:37;;;;;;;11.32;10.23;;;;;;;27.40;54.75;100743.06;5031101;28;20109;-79
2023/06/08 09:50:07;;;;;;;10.52;9.38;;;;;;;27.15;56.05;100742.97;5029327;28;20081;-78
2023/06/08 09:52:35;;;;;;;10.68;9.57;;;;;;;26.95;56.54;100755.19;5026241;28;20049;-79
2023/06/08 09:55:04;;;;;;;10.85;9.23;;;;;;;27.42;56.01;100740.88;5026647;28;20053;-79
2023/06/08 09:57:35;;;;;;;11.18;10.07;;;;;;;26.46;56.97;100756.56;5027451;28;20443;-80
2023/06/08 10:00:14;;;;;;;11.60;10.50;;;;;;;26.64;57.37;100756.91;5022449;28;20052;-80
2023/06/08 10:02:50;;;;;;;11.90;10.52;;;;;;;26.39;57.16;100735.31;5021273;28;20109;-80
2023/06/08 10:05:20;;;;;;;10.75;9.63;;;;;;;26.80;56.88;100744.41;5022062;28;20137;-82
2023/06/08 10:07:49;;;;;;;13.07;10.10;;;;;;;27.26;55.83;100728.50;5019555;28;20060;-81
2023/06/08 10:10:21;;;;;;;11.45;9.30;;;;;;;26.83;55.63;100735.03;5018799;28;20066;-79
2023/06/08 10:12:49;;;;;;;11.27;9.35;;;;;;;26.89;56.18;100740.16;5018640;28;20057;-80
2023/06/08 10:15:16;;;;;;;9.80;8.80;;;;;;;26.55;57.13;100742.38;5014816;28;20046;-79
2023/06/08 10:17:44;;;;;;;13.73;10.07;;;;;;;26.84;55.83;100729.38;5016768;28;20061;-79
2023/06/08 10:20:16;;;;;;;9.93;8.90;;;;;;;27.37;55.84;100730.16;5019387;28;20094;-80
2023/06/08 10:22:43;;;;;;;10.20;9.00;;;;;;;27.48;55.67;100728.28;5018507;28;20073;-79
2023/06/08 10:25:13;;;;;;;10.43;9.30;;;;;;;27.22;55.45;100728.22;5018013;28;20053;-78
2023/06/08 10:27:48;;;;;;;10.05;9.05;;;;;;;27.37;55.41;100724.78;5018839;28;20042;-81
2023/06/08 10:30:27;;;;;;;10.10;9.07;;;;;;;26.52;57.04;100724.09;5019977;28;20510;-79
2023/06/08 10:32:54;;;;;;;10.18;9.07;;;;;;;26.10;58.33;100740.94;5018497;28;20424;-77
2023/06/08 10:35:21;;;;;;;9.82;8.85;;;;;;;26.99;55.98;100712.53;5021999;28;20068;-80
2023/06/08 10:37:48;;;;;;;11.40;8.52;;;;;;;27.98;53.48;100703.34;5018364;28;20132;-79
2023/06/08 10:40:15;;;;;;;11.02;9.07;;;;;;;27.85;53.36;100707.41;5018223;28;20053;-80
2023/06/08 10:42:54;;;;;;;10.45;8.68;;;;;;;27.46;54.37;100701.66;5018194;28;20109;-80
2023/06/08 10:45:32;;;;;;;10.77;9.13;;;;;;;27.40;54.36;100703.56;5020416;28;20042;-80
2023/06/08 10:48:08;;;;;;;12.02;8.63;;;;;;;27.60;54.50;100712.75;5023424;28;20050;-79
2023/06/08 10:50:37;;;;;;;9.68;8.77;;;;;;;27.58;54.71;100704.09;5021866;28;20077;-80
2023/06/08 10:53:04;;;;;;;10.05;9.05;;;;;;;28.38;53.85;100703.31;5025259;28;20054;-79
2023/06/08 10:55:31;;;;;;;10.85;8.90;;;;;;;29.05;52.62;100690.47;5024241;28;20074;-78
2023/06/08 10:58:06;;;;;;;11.88;8.65;;;;;;;29.59;52.06;100692.31;5025128;28;20054;-80
2023/06/08 11:00:42;;;;;;;10.60;8.35;;;;;;;27.80;52.04;100691.28;5020862;28;20073;-79
2023/06/08 11:03:11;;;;;;;9.10;8.20;;;;;;;28.48;52.86;100683.66;5023711;28;20522;-78
2023/06/08 11:05:39;;;;;;;10.20;8.90;;;;;;;28.26;53.61;100675.13;5021787;28;20338;-80
2023/06/08 11:08:07;;;;;;;9.85;8.60;;;;;;;27.93;53.86;100673.75;5023366;28;20057;-78
2023/06/08 11:10:36;;;;;;;9.82;8.63;;;;;;;28.46;52.19;100672.34;5022308;28;20133;-82
2023/06/08 11:13:09;;;;;;;11.15;8.25;;;;;;;29.34;51.95;100677.88;5023485;28;20066;-80
2023/06/08 11:15:37;;;;;;;9.95;8.18;;;;;;;28.89;50.92;100670.88;5022891;28;20074;-80